createdAt,value
2022-09-21T00:01:43.549Z,6.07
2022-09-21T00:04:12.309Z,5.30
2022-09-21T00:06:41.211Z,5.03
2022-09-21T00:09:11.314Z,5.50
2022-09-21T00:11:40.009Z,5.40
2022-09-21T00:14:11.725Z,5.47
2022-09-21T00:16:41.785Z,5.10
2022-09-21T00:19:11.860Z,5.53
2022-09-21T00:21:40.586Z,5.43
2022-09-21T00:24:12.068Z,5.53
2022-09-21T00:26:40.714Z,5.53
2022-09-21T00:29:11.193Z,5.33
2022-09-21T00:31:40.274Z,5.10
2022-09-21T00:34:09.990Z,5.35
2022-09-21T00:36:38.604Z,4.90
2022-09-21T00:39:07.459Z,4.87
2022-09-21T00:41:42.881Z,5.20
2022-09-21T00:44:32.282Z,5.60
2022-09-21T00:47:09.737Z,4.67
2022-09-21T00:49:40.319Z,4.90
2022-09-21T00:52:12.170Z,4.83
2022-09-21T00:54:46.992Z,4.77
2022-09-21T00:57:17.817Z,5.43
2022-09-21T00:59:47.010Z,5.33
2022-09-21T01:02:16.342Z,5.00
2022-09-21T01:04:47.050Z,5.00
2022-09-21T01:07:20.602Z,5.20
2022-09-21T01:09:53.741Z,5.10
2022-09-21T01:12:38.832Z,5.07
2022-09-21T01:15:22.583Z,4.93
2022-09-21T01:17:59.348Z,4.53
2022-09-21T01:21:10.733Z,5.13
2022-09-21T01:24:09.974Z,4.67
2022-09-21T01:26:57.428Z,4.87
2022-09-21T01:29:32.562Z,4.70
2022-09-21T01:32:09.873Z,5.37
2022-09-21T01:34:43.784Z,4.63
2022-09-21T01:37:17.386Z,5.00
2022-09-21T01:39:51.200Z,4.47
2022-09-21T01:42:21.560Z,5.27
2022-09-21T01:44:50.637Z,5.13
2022-09-21T01:47:20.234Z,4.53
2022-09-21T01:49:55.063Z,4.67
2022-09-21T01:52:30.091Z,5.67
2022-09-21T01:55:03.680Z,5.27
2022-09-21T01:57:38.727Z,4.87
2022-09-21T02:00:11.074Z,4.93
2022-09-21T02:02:49.959Z,5.27
2022-09-21T02:05:23.912Z,4.60
2022-09-21T02:07:53.418Z,4.90
2022-09-21T02:10:26.548Z,5.00
2022-09-21T02:13:01.163Z,4.43
2022-09-21T02:15:42.575Z,4.70
2022-09-21T02:18:20.587Z,5.03
2022-09-21T02:20:56.786Z,5.23
2022-09-21T02:23:32.340Z,4.60
2022-09-21T02:26:09.142Z,5.13
2022-09-21T02:28:46.060Z,4.93
2022-09-21T02:31:25.884Z,6.00
2022-09-21T02:34:01.191Z,6.00
2022-09-21T02:36:35.673Z,6.00
2022-09-21T02:39:09.834Z,5.07
2022-09-21T02:41:45.823Z,5.63
2022-09-21T02:44:23.098Z,5.23
2022-09-21T02:46:56.804Z,5.63
2022-09-21T02:49:31.998Z,6.58
2022-09-21T02:52:05.257Z,6.43
2022-09-21T02:54:36.899Z,6.93
2022-09-21T02:57:07.008Z,5.90
2022-09-21T02:59:35.575Z,5.90
2022-09-21T03:02:06.422Z,6.53
2022-09-21T03:04:35.009Z,6.90
2022-09-21T03:07:04.464Z,6.83
2022-09-21T03:09:33.112Z,6.83
2022-09-21T03:12:02.120Z,7.37
2022-09-21T03:14:33.049Z,7.40
2022-09-21T03:17:01.622Z,7.23
2022-09-21T03:19:30.325Z,7.37
2022-09-21T03:21:59.584Z,7.63
2022-09-21T03:24:46.866Z,6.30
2022-09-21T03:27:18.258Z,7.20
2022-09-21T03:29:46.877Z,7.50
2022-09-21T03:32:15.561Z,7.03
2022-09-21T03:34:44.449Z,8.23
2022-09-21T03:37:15.601Z,7.50
2022-09-21T03:39:46.646Z,7.70
2022-09-21T03:42:15.275Z,7.80
2022-09-21T03:44:43.952Z,7.53
2022-09-21T03:47:14.995Z,7.60
2022-09-21T03:49:44.019Z,7.37
2022-09-21T03:52:13.469Z,7.30
2022-09-21T03:54:41.965Z,7.67
2022-09-21T03:57:10.501Z,7.43
2022-09-21T03:59:40.029Z,7.60
2022-09-21T04:02:09.055Z,8.53
2022-09-21T04:04:37.633Z,8.50
2022-09-21T04:07:06.362Z,8.67
2022-09-21T04:09:35.007Z,8.20
2022-09-21T04:12:04.247Z,9.57
2022-09-21T04:14:33.160Z,9.47
2022-09-21T04:17:01.753Z,8.13
2022-09-21T04:19:30.409Z,9.63
2022-09-21T04:21:59.005Z,8.53
2022-09-21T04:24:27.695Z,9.10
2022-09-21T04:26:56.427Z,9.27
2022-09-21T04:29:25.546Z,9.83
2022-09-21T04:31:54.385Z,8.97
2022-09-21T04:34:23.187Z,9.27
2022-09-21T04:36:53.155Z,10.10
2022-09-21T04:39:24.137Z,10.33
2022-09-21T04:41:52.686Z,9.60
2022-09-21T04:44:21.487Z,9.17
2022-09-21T04:46:50.037Z,9.43
2022-09-21T04:49:21.305Z,8.97
2022-09-21T04:51:49.869Z,9.07
2022-09-21T04:54:18.714Z,8.67
2022-09-21T04:56:47.247Z,9.23
2022-09-21T04:59:15.690Z,8.57
2022-09-21T05:01:44.344Z,8.27
2022-09-21T05:04:13.301Z,8.10
2022-09-21T05:06:42.353Z,8.13
2022-09-21T05:09:29.268Z,9.00
2022-09-21T05:11:58.164Z,8.40
2022-09-21T05:14:26.727Z,8.90
2022-09-21T05:16:55.174Z,8.23
2022-09-21T05:19:23.765Z,9.13
2022-09-21T05:21:52.537Z,8.13
2022-09-21T05:24:21.185Z,8.77
2022-09-21T05:26:49.835Z,7.70
2022-09-21T05:29:19.734Z,8.67
2022-09-21T05:31:54.090Z,7.77
2022-09-21T05:34:36.574Z,8.23
2022-09-21T05:37:10.705Z,8.20
2022-09-21T05:39:41.331Z,8.48
2022-09-21T05:42:12.017Z,7.90
2022-09-21T05:44:44.417Z,9.33
2022-09-21T05:47:24.028Z,9.13
2022-09-21T05:50:05.396Z,8.67
2022-09-21T05:52:43.946Z,8.40
2022-09-21T05:55:25.158Z,7.47
2022-09-21T05:58:01.861Z,7.37
2022-09-21T06:00:41.334Z,7.50
2022-09-21T06:03:28.951Z,6.53
2022-09-21T06:05:58.485Z,6.70
2022-09-21T06:08:27.882Z,7.03
2022-09-21T06:10:57.065Z,5.70
2022-09-21T06:13:28.032Z,6.13
2022-09-21T06:15:58.157Z,6.70
2022-09-21T06:18:29.190Z,6.80
2022-09-21T06:20:57.683Z,6.27
2022-09-21T06:23:26.294Z,6.43
2022-09-21T06:25:58.427Z,6.70
2022-09-21T06:28:27.885Z,6.40
2022-09-21T06:30:58.381Z,5.73
2022-09-21T06:33:27.122Z,5.13
2022-09-21T06:35:57.391Z,5.17
2022-09-21T06:38:27.392Z,5.20
2022-09-21T06:41:00.623Z,5.70
2022-09-21T06:43:29.163Z,4.90
2022-09-21T06:46:00.677Z,5.47
2022-09-21T06:48:30.893Z,5.67
2022-09-21T06:51:00.380Z,4.77
2022-09-21T06:53:30.313Z,4.20
2022-09-21T06:56:03.108Z,5.13
2022-09-21T06:58:34.071Z,5.03
2022-09-21T07:01:07.366Z,4.23
2022-09-21T07:03:40.011Z,4.30
2022-09-21T07:06:13.763Z,4.23
2022-09-21T07:11:33.329Z,3.50
2022-09-21T07:14:03.524Z,3.50
2022-09-21T07:16:32.977Z,3.20
2022-09-21T07:19:10.770Z,3.57
2022-09-21T07:21:42.861Z,3.47
2022-09-21T07:24:12.577Z,3.47
2022-09-21T07:26:41.472Z,2.50
2022-09-21T07:29:10.170Z,2.30
2022-09-21T07:31:39.027Z,2.40
2022-09-21T07:34:07.713Z,2.30
2022-09-21T07:36:36.747Z,2.23
2022-09-21T07:39:06.046Z,1.97
2022-09-21T07:41:34.595Z,1.67
2022-09-21T07:44:03.820Z,2.00
2022-09-21T07:46:34.213Z,2.20
2022-09-21T07:49:04.799Z,2.20
2022-09-21T07:51:34.282Z,2.00
2022-09-21T07:54:04.575Z,2.47
2022-09-21T07:56:33.334Z,2.07
2022-09-21T07:59:08.205Z,2.47
2022-09-21T08:01:38.645Z,1.93
2022-09-21T08:04:10.279Z,1.70
2022-09-21T08:06:39.797Z,1.70
2022-09-21T08:09:08.984Z,1.60
2022-09-21T08:11:37.900Z,1.60
2022-09-21T08:14:07.700Z,1.30
2022-09-21T08:16:38.815Z,1.50
2022-09-21T08:19:07.421Z,1.70
2022-09-21T08:21:36.046Z,1.35
2022-09-21T08:24:05.708Z,1.90
2022-09-21T08:26:34.576Z,1.70
2022-09-21T08:29:04.457Z,1.50
2022-09-21T08:31:33.169Z,1.50
2022-09-21T08:34:02.124Z,1.40
2022-09-21T08:36:30.658Z,1.63
2022-09-21T08:38:59.173Z,1.40
2022-09-21T08:41:48.840Z,1.47
2022-09-21T08:44:21.113Z,1.67
2022-09-21T08:47:02.741Z,1.40
2022-09-21T08:49:34.501Z,1.37
2022-09-21T08:52:07.031Z,1.27
2022-09-21T08:54:44.376Z,1.03
2022-09-21T08:57:14.459Z,1.00
2022-09-21T08:59:46.730Z,1.20
2022-09-21T09:02:37.517Z,1.17
2022-09-21T09:05:20.915Z,1.40
2022-09-21T09:08:08.175Z,1.00
2022-09-21T09:10:41.473Z,1.40
2022-09-21T09:13:30.026Z,1.10
2022-09-21T09:16:11.147Z,1.20
2022-09-21T09:18:45.641Z,1.40
2022-09-21T09:21:29.383Z,1.10
2022-09-21T09:24:05.157Z,1.20
2022-09-21T09:26:39.389Z,1.30
2022-09-21T09:29:17.027Z,1.23
2022-09-21T09:31:48.995Z,1.20
2022-09-21T09:34:24.365Z,1.10
2022-09-21T09:36:59.755Z,1.30
2022-09-21T09:39:30.664Z,1.27
2022-09-21T09:42:30.078Z,1.10
2022-09-21T09:45:26.287Z,1.17
2022-09-21T09:48:06.399Z,1.40
2022-09-21T09:50:37.447Z,1.23
2022-09-21T09:53:11.628Z,1.03
2022-09-21T09:55:43.174Z,1.27
2022-09-21T09:58:20.350Z,1.40
2022-09-21T10:00:53.177Z,1.50
2022-09-21T10:03:23.944Z,1.30
2022-09-21T10:05:53.391Z,1.07
2022-09-21T10:08:31.613Z,1.23
2022-09-21T10:11:00.250Z,1.27
2022-09-21T10:13:31.331Z,1.10
2022-09-21T10:16:01.529Z,1.40
2022-09-21T10:18:37.929Z,1.10
2022-09-21T10:21:09.707Z,1.13
2022-09-21T10:23:39.967Z,1.13
2022-09-21T10:26:12.884Z,1.20
2022-09-21T10:31:25.961Z,0.80
2022-09-21T10:34:07.096Z,0.90
2022-09-21T10:36:38.538Z,1.07
2022-09-21T10:39:33.289Z,0.90
2022-09-21T10:42:05.654Z,1.00
2022-09-21T10:44:41.211Z,0.80
2022-09-21T10:47:22.939Z,0.80
2022-09-21T10:49:54.292Z,1.07
2022-09-21T10:52:24.540Z,1.00
2022-09-21T10:54:56.231Z,1.27
2022-09-21T10:57:28.627Z,1.00
2022-09-21T10:59:57.333Z,0.95
2022-09-21T11:02:38.727Z,1.10
2022-09-21T11:05:15.894Z,1.10
2022-09-21T11:07:51.194Z,1.00
2022-09-21T11:10:24.238Z,1.20
2022-09-21T11:13:16.567Z,1.33
2022-09-21T11:15:51.709Z,1.20
2022-09-21T11:18:34.631Z,0.90
2022-09-21T11:21:17.724Z,0.75
2022-09-21T11:24:03.871Z,1.07
2022-09-21T11:26:39.200Z,1.03
2022-09-21T11:29:16.336Z,1.00
2022-09-21T11:32:07.181Z,0.83
2022-09-21T11:35:00.443Z,0.87
2022-09-21T11:37:51.011Z,0.70
2022-09-21T11:40:36.751Z,0.77
2022-09-21T11:43:19.092Z,0.70
2022-09-21T11:46:01.000Z,1.05
2022-09-21T11:48:48.910Z,1.00
2022-09-21T11:51:38.409Z,1.10
2022-09-21T11:54:31.204Z,0.90
2022-09-21T11:57:05.009Z,0.90
2022-09-21T12:02:44.481Z,0.73
2022-09-21T12:05:22.595Z,1.00
2022-09-21T12:08:16.449Z,0.80
2022-09-21T12:10:56.832Z,1.03
2022-09-21T12:13:33.549Z,0.60
2022-09-21T12:16:11.134Z,0.60
2022-09-21T12:18:47.623Z,0.70
2022-09-21T12:21:21.705Z,1.10
2022-09-21T12:23:55.062Z,1.00
2022-09-21T12:26:29.499Z,0.63
2022-09-21T12:29:03.368Z,0.83
2022-09-21T12:31:39.506Z,0.83
2022-09-21T12:34:16.460Z,0.77
2022-09-21T12:36:53.086Z,0.57
2022-09-21T12:39:29.104Z,0.67
2022-09-21T12:42:01.800Z,0.80
2022-09-21T12:44:52.517Z,1.33
2022-09-21T12:47:27.578Z,1.00
2022-09-21T12:50:01.751Z,1.07
2022-09-21T12:52:32.970Z,1.13
2022-09-21T12:55:17.431Z,0.97
2022-09-21T13:00:55.268Z,1.00
2022-09-21T13:03:32.990Z,1.03
2022-09-21T13:06:43.082Z,0.90
2022-09-21T13:09:15.751Z,1.30
2022-09-21T13:11:56.021Z,0.90
2022-09-21T13:14:28.782Z,0.97
2022-09-21T13:17:01.260Z,1.10
2022-09-21T13:19:31.583Z,1.00
2022-09-21T13:22:21.336Z,0.97
2022-09-21T13:25:05.500Z,0.77
2022-09-21T13:30:32.147Z,0.60
2022-09-21T13:33:01.958Z,1.10
2022-09-21T13:36:27.920Z,1.50
2022-09-21T13:39:17.253Z,1.87
2022-09-21T13:42:02.437Z,1.40
2022-09-21T13:44:46.359Z,1.30
2022-09-21T13:47:27.946Z,1.10
2022-09-21T13:50:00.683Z,1.20
2022-09-21T13:52:40.345Z,1.30
2022-09-21T13:55:27.302Z,1.00
2022-09-21T13:57:58.559Z,1.53
2022-09-21T14:00:51.492Z,2.27
2022-09-21T14:03:24.119Z,1.80
2022-09-21T14:05:55.361Z,1.70
2022-09-21T14:08:31.466Z,1.77
2022-09-21T14:11:03.484Z,1.53
2022-09-21T14:13:36.034Z,1.40
2022-09-21T14:16:51.778Z,1.73
2022-09-21T14:20:07.764Z,1.30
2022-09-21T14:22:43.984Z,1.47
2022-09-21T14:25:47.831Z,1.50
2022-09-21T14:28:21.056Z,1.60
2022-09-21T14:30:56.197Z,1.20
2022-09-21T14:33:42.049Z,0.83
2022-09-21T14:36:20.151Z,1.00
2022-09-21T14:38:54.874Z,0.80
2022-09-21T14:41:31.801Z,0.90
2022-09-21T14:44:00.835Z,0.80
2022-09-21T14:46:47.183Z,1.50
2022-09-21T14:49:34.417Z,1.13
2022-09-21T14:52:18.264Z,1.00
2022-09-21T14:55:05.063Z,0.90
2022-09-21T14:57:51.332Z,1.23
2022-09-21T15:00:26.072Z,1.50
2022-09-21T15:03:20.397Z,1.20
2022-09-21T15:05:55.381Z,1.50
2022-09-21T15:09:03.386Z,1.20
2022-09-21T15:11:39.523Z,1.30
2022-09-21T15:14:34.155Z,1.23
2022-09-21T15:19:49.536Z,1.22
2022-09-21T15:22:20.739Z,0.93
2022-09-21T15:24:51.953Z,1.43
2022-09-21T15:27:23.349Z,1.37
2022-09-21T15:29:54.423Z,1.57
2022-09-21T15:32:36.084Z,1.30
2022-09-21T15:35:16.063Z,1.40
2022-09-21T15:37:46.714Z,1.30
2022-09-21T15:40:21.784Z,1.20
2022-09-21T15:43:01.557Z,1.20
2022-09-21T15:45:33.420Z,1.50
2022-09-21T15:48:06.405Z,1.90
2022-09-21T15:50:38.739Z,2.20
2022-09-21T15:53:19.081Z,1.60
2022-09-21T15:55:49.234Z,1.67
2022-09-21T15:58:27.621Z,1.70
2022-09-21T16:00:57.579Z,2.03
2022-09-21T16:03:26.674Z,1.60
2022-09-21T16:05:57.125Z,1.53
2022-09-21T16:08:34.304Z,1.57
2022-09-21T16:11:15.935Z,2.03
2022-09-21T16:14:04.560Z,1.63
2022-09-21T16:16:53.299Z,1.20
2022-09-21T16:19:42.051Z,1.10
2022-09-21T16:22:14.119Z,1.20
2022-09-21T16:24:49.994Z,1.20
2022-09-21T16:27:21.782Z,1.97
2022-09-21T16:29:51.755Z,2.87
2022-09-21T16:32:31.348Z,2.00
2022-09-21T16:35:24.786Z,1.63
2022-09-21T16:38:01.527Z,1.43
2022-09-21T16:40:30.629Z,2.00
2022-09-21T16:42:59.792Z,2.00
2022-09-21T16:45:31.087Z,2.00
2022-09-21T16:48:07.434Z,2.10
2022-09-21T16:50:36.121Z,2.23
2022-09-21T16:53:04.879Z,2.43
2022-09-21T16:55:34.462Z,2.20
2022-09-21T16:58:03.075Z,2.20
2022-09-21T17:00:42.051Z,2.23
2022-09-21T17:03:12.466Z,2.60
2022-09-21T17:05:41.526Z,2.20
2022-09-21T17:08:11.584Z,2.60
2022-09-21T17:10:44.361Z,2.67
2022-09-21T17:13:15.747Z,2.43
2022-09-21T17:15:47.234Z,2.40
2022-09-21T17:18:16.770Z,2.50
2022-09-21T17:20:46.638Z,2.80
2022-09-21T17:23:15.824Z,2.60
2022-09-21T17:25:45.236Z,3.10
2022-09-21T17:28:22.933Z,2.93
2022-09-21T17:30:52.114Z,2.90
2022-09-21T17:33:24.625Z,3.07
2022-09-21T17:35:56.118Z,2.83
2022-09-21T17:38:25.312Z,2.90
2022-09-21T17:40:54.739Z,2.60
2022-09-21T17:43:40.538Z,3.10
2022-09-21T17:46:18.166Z,2.93
2022-09-21T17:48:48.010Z,3.10
2022-09-21T17:51:39.990Z,3.50
2022-09-21T17:54:09.914Z,3.10
2022-09-21T17:56:45.968Z,4.03
2022-09-21T17:59:27.338Z,3.37
2022-09-21T18:01:59.761Z,3.77
2022-09-21T18:04:34.306Z,3.93
2022-09-21T18:07:04.136Z,3.87
2022-09-21T18:09:38.752Z,4.10
2022-09-21T18:12:38.810Z,3.80
2022-09-21T18:15:18.428Z,3.33
2022-09-21T18:17:59.125Z,3.77
2022-09-21T18:20:47.322Z,4.13
2022-09-21T18:23:25.149Z,4.13
2022-09-21T18:25:56.693Z,4.07
2022-09-21T18:28:37.923Z,4.17
2022-09-21T18:31:21.757Z,4.00
2022-09-21T18:33:59.406Z,4.77
2022-09-21T18:36:36.499Z,3.83
2022-09-21T18:39:21.701Z,4.57
2022-09-21T18:42:06.144Z,4.63
2022-09-21T18:44:40.168Z,4.90
2022-09-21T18:47:16.007Z,4.23
2022-09-21T18:49:54.842Z,4.00
2022-09-21T18:52:35.724Z,4.30
2022-09-21T18:55:17.882Z,4.23
2022-09-21T18:57:48.140Z,4.60
2022-09-21T19:00:20.935Z,5.20
2022-09-21T19:03:15.396Z,5.00
2022-09-21T19:05:44.059Z,4.50
2022-09-21T19:08:20.416Z,4.87
2022-09-21T19:10:55.062Z,5.17
2022-09-21T19:13:38.822Z,5.40
2022-09-21T19:16:16.852Z,4.93
2022-09-21T19:18:53.701Z,5.70
2022-09-21T19:21:41.750Z,5.23
2022-09-21T19:24:19.860Z,5.77
2022-09-21T19:27:12.181Z,5.13
2022-09-21T19:29:56.712Z,4.80
2022-09-21T19:35:01.790Z,5.10
2022-09-21T19:37:31.217Z,5.00
2022-09-21T19:40:00.420Z,5.00
2022-09-21T19:42:40.245Z,5.27
2022-09-21T19:45:22.173Z,5.40
2022-09-21T19:47:57.846Z,5.43
2022-09-21T19:50:40.629Z,5.60
2022-09-21T19:53:31.276Z,5.07
2022-09-21T19:56:24.267Z,5.30
2022-09-21T19:59:12.320Z,4.63
2022-09-21T20:01:51.320Z,5.33
2022-09-21T20:04:27.601Z,5.13
2022-09-21T20:07:02.721Z,5.70
2022-09-21T20:09:37.958Z,5.20
2022-09-21T20:12:15.003Z,6.20
2022-09-21T20:14:48.081Z,5.80
2022-09-21T20:17:21.590Z,5.97
2022-09-21T20:19:57.735Z,5.20
2022-09-21T20:22:33.792Z,5.50
2022-09-21T20:25:10.085Z,5.67
2022-09-21T20:27:42.407Z,4.93
2022-09-21T20:30:15.596Z,5.40
2022-09-21T20:32:48.404Z,5.60
2022-09-21T20:35:20.397Z,5.10
2022-09-21T20:37:51.219Z,5.10
2022-09-21T20:40:26.311Z,5.70
2022-09-21T20:42:56.461Z,5.17
2022-09-21T20:45:25.182Z,5.47
2022-09-21T20:47:56.686Z,5.40
2022-09-21T20:50:29.769Z,5.05
2022-09-21T20:52:58.383Z,5.60
2022-09-21T20:55:28.702Z,5.40
2022-09-21T20:57:57.600Z,5.00
2022-09-21T21:00:26.467Z,5.80
2022-09-21T21:02:58.683Z,5.15
2022-09-21T21:05:28.638Z,5.30
2022-09-21T21:07:58.997Z,4.93
2022-09-21T21:10:27.997Z,5.70
2022-09-21T21:12:58.288Z,4.67
2022-09-21T21:15:28.862Z,5.00
2022-09-21T21:17:58.059Z,4.90
2022-09-21T21:20:28.621Z,4.90
2022-09-21T21:22:59.253Z,4.77
2022-09-21T21:25:27.740Z,4.67
2022-09-21T21:27:58.757Z,4.50
2022-09-21T21:30:27.602Z,5.27
2022-09-21T21:32:57.154Z,4.80
2022-09-21T21:35:25.974Z,4.70
2022-09-21T21:37:58.646Z,5.50
2022-09-21T22:55:09.473Z,4.70
2022-09-21T22:57:39.928Z,4.22
2022-09-21T23:00:11.511Z,4.53
2022-09-21T23:02:43.015Z,4.57
2022-09-21T23:05:11.573Z,4.60
2022-09-21T23:07:50.154Z,4.73
2022-09-21T23:10:19.776Z,4.83
2022-09-21T23:12:50.797Z,4.77
2022-09-21T23:15:20.297Z,4.73
2022-09-21T23:17:50.040Z,4.50
2022-09-21T23:20:20.213Z,4.40
2022-09-21T23:22:50.242Z,4.57
2022-09-21T23:25:20.540Z,4.30
2022-09-21T23:27:49.172Z,4.47
2022-09-21T23:30:18.437Z,4.53
2022-09-21T23:32:47.303Z,4.10
2022-09-21T23:35:19.342Z,4.60
2022-09-21T23:37:52.364Z,4.23
2022-09-21T23:40:50.843Z,4.10
2022-09-21T23:43:56.224Z,4.27
2022-09-21T23:47:03.588Z,4.13
2022-09-21T23:49:42.253Z,4.20
2022-09-21T23:52:11.257Z,4.43
2022-09-21T23:54:39.991Z,3.57
2022-09-21T23:57:09.088Z,4.20
2022-09-21T23:59:39.323Z,3.83
